createdAt,value
2022-12-16T00:01:15.531Z,4.90
2022-12-16T00:07:27.757Z,4.55
2022-12-16T00:13:37.556Z,3.80
2022-12-16T00:19:46.500Z,2.77
2022-12-16T00:25:54.260Z,2.47
2022-12-16T00:32:03.655Z,2.00
2022-12-16T00:38:14.091Z,2.83
2022-12-16T00:44:26.101Z,2.83
2022-12-16T00:50:34.048Z,2.33
2022-12-16T00:56:42.002Z,1.72
2022-12-16T01:02:53.667Z,2.45
2022-12-16T01:09:04.065Z,2.47
2022-12-16T01:15:17.353Z,2.08
2022-12-16T01:21:27.968Z,1.50
2022-12-16T01:27:42.356Z,0.90
2022-12-16T01:33:54.571Z,1.65
2022-12-16T01:40:05.546Z,2.42
2022-12-16T01:46:16.472Z,1.92
2022-12-16T01:52:28.376Z,2.25
2022-12-16T01:58:40.287Z,2.25
2022-12-16T02:05:09.754Z,1.15
2022-12-16T02:11:27.248Z,1.15
2022-12-16T02:17:38.765Z,2.02
2022-12-16T02:24:10.024Z,1.20
2022-12-16T02:30:46.500Z,1.40
2022-12-16T02:37:03.780Z,1.20
2022-12-16T02:43:18.981Z,1.47
2022-12-16T02:49:51.208Z,0.90
2022-12-16T02:56:04.496Z,1.85
2022-12-16T03:02:17.337Z,1.50
2022-12-16T03:08:30.799Z,1.95
2022-12-16T03:14:40.936Z,1.42
2022-12-16T03:20:51.958Z,1.60
2022-12-16T03:27:12.194Z,2.10
2022-12-16T03:33:26.507Z,2.25
2022-12-16T03:39:36.471Z,1.92
2022-12-16T03:45:47.798Z,1.42
2022-12-16T03:51:57.324Z,1.32
2022-12-16T03:58:07.216Z,1.65
2022-12-16T04:04:19.344Z,0.90
2022-12-16T04:10:48.206Z,1.60
2022-12-16T04:17:13.665Z,1.50
2022-12-16T04:23:38.481Z,1.25
2022-12-16T04:30:06.428Z,2.02
2022-12-16T04:36:32.168Z,0.60
2022-12-16T04:42:58.417Z,1.52
2022-12-16T04:49:22.635Z,1.70
2022-12-16T04:55:50.753Z,0.72
2022-12-16T05:02:18.731Z,1.20
2022-12-16T05:08:43.827Z,1.55
2022-12-16T05:15:10.319Z,0.95
2022-12-16T05:21:37.033Z,1.67
2022-12-16T05:28:05.492Z,0.75
2022-12-16T05:34:32.500Z,0.70
2022-12-16T05:40:58.955Z,1.27
2022-12-16T05:47:25.339Z,0.67
2022-12-16T05:53:51.602Z,0.97
2022-12-16T06:00:20.138Z,0.60
2022-12-16T06:06:44.323Z,0.82
2022-12-16T06:13:09.495Z,1.25
2022-12-16T06:19:35.987Z,0.90
2022-12-16T06:26:00.189Z,0.85
2022-12-16T06:32:26.896Z,1.22
2022-12-16T06:38:56.170Z,0.88
2022-12-16T06:45:21.061Z,0.50
2022-12-16T06:51:47.797Z,0.70
2022-12-16T06:58:16.572Z,0.85
2022-12-16T07:04:42.940Z,0.90
2022-12-16T07:11:16.208Z,0.73
2022-12-16T07:17:34.740Z,0.65
2022-12-16T07:24:03.034Z,0.93
2022-12-16T07:30:32.948Z,0.68
2022-12-16T07:37:00.151Z,0.82
2022-12-16T07:49:53.698Z,0.72
2022-12-16T07:56:23.264Z,0.60
2022-12-16T08:02:49.915Z,0.40
2022-12-16T08:09:19.580Z,0.62
2022-12-16T08:15:47.640Z,0.98
2022-12-16T08:22:14.356Z,0.60
2022-12-16T08:28:42.639Z,0.80
2022-12-16T08:35:08.366Z,0.78
2022-12-16T08:41:34.910Z,0.70
2022-12-16T08:48:03.197Z,0.53
2022-12-16T08:54:29.011Z,0.75
2022-12-16T09:00:55.172Z,0.50
2022-12-16T09:07:22.310Z,0.57
2022-12-16T09:13:49.849Z,0.50
2022-12-16T09:20:16.244Z,0.62
2022-12-16T09:26:44.141Z,0.50
2022-12-16T09:33:10.515Z,0.75
2022-12-16T09:39:38.773Z,0.60
2022-12-16T09:46:06.667Z,0.40
2022-12-16T09:52:33.926Z,0.50
2022-12-16T10:05:27.686Z,0.50
2022-12-16T10:11:59.525Z,0.30
2022-12-16T10:18:29.269Z,0.30
2022-12-16T10:25:10.080Z,0.60
2022-12-16T10:31:37.535Z,0.45
2022-12-16T10:38:01.853Z,0.50
2022-12-16T10:44:39.221Z,0.57
2022-12-16T10:51:05.207Z,0.30
2022-12-16T10:57:33.746Z,0.65
2022-12-16T11:04:00.133Z,0.78
2022-12-16T11:10:43.915Z,0.33
2022-12-16T11:17:08.158Z,0.70
2022-12-16T11:23:39.630Z,0.75
2022-12-16T11:30:14.423Z,0.40
2022-12-16T11:36:41.247Z,0.40
2022-12-16T11:43:12.838Z,0.60
2022-12-16T11:49:36.667Z,0.55
2022-12-16T12:02:20.451Z,0.50
2022-12-16T12:08:47.845Z,0.65
2022-12-16T12:15:15.865Z,0.50
2022-12-16T12:21:46.366Z,0.53
2022-12-16T12:28:17.253Z,0.57
2022-12-16T12:34:47.028Z,0.72
2022-12-16T12:41:17.315Z,0.47
2022-12-16T12:47:41.696Z,0.50
2022-12-16T12:54:09.568Z,0.50
2022-12-16T13:00:42.554Z,0.65
2022-12-16T13:07:08.567Z,0.70
2022-12-16T13:13:52.271Z,0.45
2022-12-16T13:20:19.520Z,1.00
2022-12-16T13:26:46.888Z,0.60
2022-12-16T13:33:18.660Z,0.60
2022-12-16T13:39:45.309Z,0.42
2022-12-16T13:46:34.348Z,0.40
2022-12-16T13:53:07.979Z,0.90
2022-12-16T13:59:36.498Z,0.30
2022-12-16T14:06:08.703Z,0.40
2022-12-16T14:12:49.124Z,0.50
2022-12-16T14:19:17.625Z,0.50
2022-12-16T14:25:42.956Z,0.40
2022-12-16T14:32:07.602Z,0.20
2022-12-16T14:38:43.643Z,0.30
2022-12-16T14:45:11.769Z,0.55
2022-12-16T14:51:45.033Z,0.37
2022-12-16T14:58:24.073Z,0.98
2022-12-16T15:04:50.006Z,0.35
2022-12-16T15:11:32.198Z,0.67
2022-12-16T15:18:07.997Z,0.40
2022-12-16T15:24:37.179Z,0.30
2022-12-16T15:31:03.863Z,0.53
2022-12-16T15:37:37.167Z,1.45
2022-12-16T15:44:04.009Z,0.68
2022-12-16T15:57:04.211Z,1.20
2022-12-16T16:04:01.110Z,0.98
2022-12-16T16:16:58.024Z,4.70
2022-12-16T16:23:27.202Z,3.35
2022-12-16T16:29:53.956Z,1.45
2022-12-16T16:43:00.274Z,1.57
2022-12-16T16:49:37.241Z,1.52
2022-12-16T16:56:05.126Z,1.15
2022-12-16T17:02:41.219Z,1.32
2022-12-16T17:09:12.097Z,1.37
2022-12-16T17:15:41.833Z,1.50
2022-12-16T17:22:16.576Z,1.25
2022-12-16T17:28:41.683Z,1.25
2022-12-16T17:35:08.479Z,1.50
2022-12-16T17:41:36.085Z,2.08
2022-12-16T17:48:03.597Z,1.57
2022-12-16T17:54:31.954Z,1.50
2022-12-16T18:00:59.559Z,1.17
2022-12-16T18:07:25.830Z,1.90
2022-12-16T18:13:52.932Z,1.25
2022-12-16T18:20:17.683Z,1.55
2022-12-16T18:26:42.437Z,0.88
2022-12-16T18:33:07.833Z,0.98
2022-12-16T18:39:34.340Z,1.30
2022-12-16T18:45:59.320Z,1.05
2022-12-16T18:52:27.085Z,1.10
2022-12-16T18:58:56.442Z,1.52
2022-12-16T19:05:26.294Z,0.98
2022-12-16T19:11:53.964Z,0.85
2022-12-16T19:18:18.572Z,0.93
2022-12-16T19:24:46.192Z,0.75
2022-12-16T19:31:18.215Z,1.35
2022-12-16T19:37:46.512Z,1.07
2022-12-16T19:44:15.010Z,1.17
2022-12-16T19:50:39.308Z,1.15
2022-12-16T19:57:09.052Z,2.02
2022-12-16T20:03:39.711Z,1.30
2022-12-16T20:10:09.342Z,1.80
2022-12-16T20:16:36.447Z,1.00
2022-12-16T20:23:01.084Z,1.50
2022-12-16T20:29:29.079Z,1.07
2022-12-16T20:35:59.067Z,1.35
2022-12-16T20:42:27.557Z,0.98
2022-12-16T20:48:53.011Z,1.35
2022-12-16T20:55:20.682Z,1.50
2022-12-16T21:02:14.665Z,0.90
2022-12-16T21:08:15.056Z,1.72
2022-12-16T21:14:44.727Z,1.30
2022-12-16T21:21:15.044Z,1.07
2022-12-16T21:27:59.736Z,1.15
2022-12-16T21:34:28.794Z,0.98
2022-12-16T21:40:56.163Z,1.17
2022-12-16T21:47:20.239Z,1.98
2022-12-16T21:53:47.400Z,1.47
2022-12-16T22:00:13.945Z,1.22
2022-12-16T22:13:14.138Z,0.90
2022-12-16T22:19:38.587Z,0.90
2022-12-16T22:26:05.508Z,2.08
2022-12-16T22:32:32.932Z,1.90
2022-12-16T22:38:57.200Z,1.35
2022-12-16T22:45:30.826Z,2.17
2022-12-16T22:51:58.406Z,1.07
2022-12-16T22:58:32.009Z,1.92
2022-12-16T23:04:57.662Z,1.42
2022-12-16T23:11:23.855Z,1.67
2022-12-16T23:17:48.463Z,1.37
2022-12-16T23:24:16.816Z,1.45
2022-12-16T23:30:41.319Z,1.10
2022-12-16T23:37:09.770Z,1.72
2022-12-16T23:43:38.025Z,1.40
2022-12-16T23:50:10.912Z,1.30
2022-12-16T23:56:33.365Z,1.22
